Weather at London Heathrow Airport

Public forecast

Using degrees Celsius for public forecast. Weather courtesy of forecast.io.

Current aviation weather report (METAR) for London Heathrow Airport

Retrieved 2021/05/17 23:20 UTC (0 seconds ago):

EGLL 172320Z AUTO 24004KT 9999 BKN048 09/08 Q1011 NOSIG

Aviation forecast (TAF) for London Heathrow Airport

Retrieved 2021/05/17 18:00 UTC (5 hours ago):

TAF EGLL 171701Z 1718/1824 30008KT 9999 SCT035 TEMPO 1718/1720 6000 SHRA PROB30 TEMPO 1718/1719 4000 TSRA PROB30 TEMPO 1720/1723 8000 SHRA PROB30 TEMPO 1804/1807 BKN005 TEMPO 1809/1821 6000 SHRA PROB30 TEMPO 1811/1819 3000 +TSRA